Time;durP1;ratioP1;P1;durP2;ratioP2;P2;SDS_P1;SDS_P2;PMS_P1;PMS_P2;Temp;Humidity;BMP_temperature;BMP_pressure;BME280_temperature;BME280_humidity;BME280_pressure;Samples;Min_cycle;Max_cycle;Signal;HPM_P1;HPM_P2
2022/10/17 00:01:11;;;;;;;12.57;7.22;;;19.00;94.60;;;;;;4995577;28;20027;-76
2022/10/17 00:03:38;;;;;;;11.27;6.82;;;19.00;94.70;;;;;;4995107;28;20027;-74
2022/10/17 00:06:09;;;;;;;15.57;7.47;;;19.00;94.70;;;;;;4995626;28;20065;-77
2022/10/17 00:08:36;;;;;;;12.60;7.57;;;19.00;94.60;;;;;;4995121;28;20037;-75
2022/10/17 00:11:11;;;;;;;10.75;6.78;;;18.90;94.70;;;;;;4994799;28;20050;-74
2022/10/17 00:13:37;;;;;;;11.13;6.80;;;18.90;94.70;;;;;;4995156;28;20026;-77
2022/10/17 00:16:03;;;;;;;13.50;7.65;;;18.90;94.80;;;;;;4995147;28;20105;-75
2022/10/17 00:18:29;;;;;;;13.25;6.75;;;18.90;94.80;;;;;;4994906;28;20042;-75
2022/10/17 00:20:55;;;;;;;12.05;6.85;;;18.90;94.70;;;;;;4994852;28;20026;-75
2022/10/17 00:23:20;;;;;;;11.68;7.13;;;18.90;94.80;;;;;;4994706;28;20034;-76
2022/10/17 00:25:46;;;;;;;11.30;7.20;;;18.90;94.70;;;;;;4994725;28;20476;-75
2022/10/17 00:28:13;;;;;;;12.73;7.38;;;18.90;94.70;;;;;;4994878;28;20034;-75
2022/10/17 00:30:40;;;;;;;13.65;6.90;;;18.80;94.70;;;;;;4994433;28;20488;-73
2022/10/17 00:33:06;;;;;;;12.73;6.88;;;18.80;94.70;;;;;;4994433;28;20085;-69
2022/10/17 00:35:32;;;;;;;12.25;7.38;;;18.80;94.70;;;;;;4994639;28;20333;-73
2022/10/17 00:37:58;;;;;;;11.70;6.80;;;18.80;94.60;;;;;;4994167;28;20026;-74
2022/10/17 00:40:23;;;;;;;12.48;7.45;;;18.80;94.60;;;;;;4998689;28;20057;-72
2022/10/17 00:42:51;;;;;;;12.15;6.65;;;18.80;94.60;;;;;;5002274;28;20038;-74
2022/10/17 00:45:25;;;;;;;16.13;8.02;;;18.80;94.50;;;;;;5004534;28;20026;-72
2022/10/17 00:48:04;;;;;;;11.68;7.50;;;18.80;94.40;;;;;;4997665;28;20425;-72
2022/10/17 00:50:30;;;;;;;12.18;7.07;;;18.80;94.50;;;;;;4994608;28;20086;-73
2022/10/17 00:53:00;;;;;;;12.25;7.97;;;18.80;94.50;;;;;;4994295;28;20027;-73
2022/10/17 00:55:33;;;;;;;12.75;8.45;;;18.80;94.40;;;;;;4994230;28;20022;-72
2022/10/17 00:58:01;;;;;;;17.73;10.50;;;18.80;94.30;;;;;;4993974;28;20138;-75
2022/10/17 01:00:27;;;;;;;19.92;11.80;;;18.80;94.30;;;;;;4994161;28;20113;-74
2022/10/17 01:02:54;;;;;;;17.70;12.85;;;18.80;94.20;;;;;;4994252;28;20455;-72
2022/10/17 01:05:21;;;;;;;21.98;13.35;;;18.80;94.20;;;;;;4993985;28;20022;-70
2022/10/17 01:07:49;;;;;;;21.05;14.23;;;18.80;94.10;;;;;;4976957;28;20026;-74
2022/10/17 01:10:15;;;;;;;23.75;13.65;;;18.80;94.10;;;;;;4994105;28;20050;-75
2022/10/17 01:13:04;;;;;;;21.30;14.52;;;18.80;94.10;;;;;;4993973;28;20117;-70
2022/10/17 01:15:45;;;;;;;24.27;14.02;;;18.80;94.20;;;;;;4976342;28;20026;-71
2022/10/17 01:18:32;;;;;;;19.63;11.35;;;18.80;94.20;;;;;;4993862;28;20399;-73
2022/10/17 01:21:39;;;;;;;19.20;11.15;;;18.70;94.20;;;;;;4994171;28;20126;-75
2022/10/17 01:24:26;;;;;;;13.98;8.38;;;18.70;94.40;;;;;;4989860;28;20042;-73
2022/10/17 01:27:24;;;;;;;14.70;8.68;;;18.70;94.60;;;;;;4994174;28;20356;-75
2022/10/17 01:30:17;;;;;;;15.52;8.05;;;18.60;94.60;;;;;;4993167;28;20053;-75
2022/10/17 01:33:01;;;;;;;11.45;7.55;;;18.60;94.70;;;;;;4994060;28;20049;-72
2022/10/17 01:35:49;;;;;;;14.00;7.22;;;18.60;94.90;;;;;;4993709;28;20106;-76
2022/10/17 01:38:23;;;;;;;12.15;7.40;;;18.60;94.90;;;;;;4993879;28;20085;-71
2022/10/17 01:41:13;;;;;;;13.63;7.43;;;18.60;94.90;;;;;;4993698;28;20109;-73
2022/10/17 01:43:42;;;;;;;13.98;7.22;;;18.60;94.90;;;;;;4948623;28;20046;-74
2022/10/17 01:46:31;;;;;;;12.98;6.80;;;18.50;94.90;;;;;;4993571;28;20026;-75
2022/10/17 01:49:01;;;;;;;14.75;8.07;;;18.50;95.00;;;;;;4995550;28;20096;-73
2022/10/17 01:51:33;;;;;;;12.38;7.63;;;18.50;95.00;;;;;;4997397;28;20521;-71
2022/10/17 01:54:22;;;;;;;11.07;6.80;;;18.50;95.10;;;;;;4997480;28;20113;-73
2022/10/17 01:56:54;;;;;;;13.43;7.53;;;18.50;95.00;;;;;;4982253;28;20050;-69
2022/10/17 01:59:30;;;;;;;17.15;7.63;;;18.50;95.10;;;;;;4997198;28;20041;-73
2022/10/17 02:01:58;;;;;;;11.77;8.05;;;18.40;95.00;;;;;;4997667;28;20361;-73
2022/10/17 02:04:25;;;;;;;12.30;7.80;;;18.40;95.10;;;;;;4979836;28;20046;-71
2022/10/17 02:06:50;;;;;;;12.88;7.75;;;18.40;95.10;;;;;;4997036;28;20014;-74
2022/10/17 02:09:24;;;;;;;12.10;7.07;;;18.40;95.20;;;;;;4997092;28;20498;-73
2022/10/17 02:12:18;;;;;;;14.88;7.30;;;18.40;95.20;;;;;;4997382;28;20112;-75
2022/10/17 02:15:12;;;;;;;13.88;8.45;;;18.40;95.20;;;;;;4997256;28;20066;-72
2022/10/17 02:17:44;;;;;;;14.32;7.97;;;18.40;95.20;;;;;;4956849;28;20074;-69
2022/10/17 02:20:21;;;;;;;16.00;8.25;;;18.40;95.10;;;;;;4997007;28;20023;-72
2022/10/17 02:22:55;;;;;;;12.63;7.93;;;18.30;95.20;;;;;;4996822;28;20522;-69
2022/10/17 02:25:40;;;;;;;11.55;8.30;;;18.30;95.30;;;;;;4997116;28;20030;-72
2022/10/17 02:28:18;;;;;;;15.50;8.30;;;18.30;95.20;;;;;;4996873;28;20114;-70
2022/10/17 02:30:52;;;;;;;12.27;8.80;;;18.40;95.20;;;;;;4996897;28;20129;-73
2022/10/17 02:33:41;;;;;;;12.07;8.20;;;18.30;95.10;;;;;;4996947;28;20057;-75
2022/10/17 02:36:13;;;;;;;11.48;7.35;;;18.30;95.10;;;;;;4997006;28;20032;-72
2022/10/17 02:38:40;;;;;;;15.93;8.45;;;18.30;95.10;;;;;;4996723;28;20114;-74
2022/10/17 02:41:10;;;;;;;12.57;8.02;;;18.30;95.10;;;;;;4996574;28;20077;-73
2022/10/17 02:43:37;;;;;;;11.88;8.48;;;18.30;95.00;;;;;;4996790;28;20472;-70
2022/10/17 02:46:04;;;;;;;11.00;7.95;;;18.30;94.90;;;;;;4996619;28;20032;-73
2022/10/17 02:48:37;;;;;;;11.27;7.43;;;18.20;94.70;;;;;;4996586;28;20476;-75
2022/10/17 02:51:13;;;;;;;13.10;7.93;;;18.20;94.60;;;;;;4996600;28;20476;-69
2022/10/17 02:54:04;;;;;;;12.82;7.80;;;18.20;94.60;;;;;;4996374;28;20042;-69
2022/10/17 02:56:36;;;;;;;11.82;7.88;;;18.10;94.60;;;;;;4996503;28;20507;-71
2022/10/17 02:59:05;;;;;;;16.80;8.57;;;18.20;94.60;;;;;;4996614;28;20495;-78
2022/10/17 03:01:31;;;;;;;14.95;8.05;;;18.10;94.40;;;;;;4995277;28;20478;-75
2022/10/17 03:04:08;;;;;;;14.95;8.35;;;18.10;94.40;;;;;;4996210;28;20030;-77
2022/10/17 03:06:35;;;;;;;15.65;9.15;;;18.10;94.30;;;;;;4996201;28;20054;-76
2022/10/17 03:09:00;;;;;;;12.70;8.27;;;18.10;94.30;;;;;;4996582;28;20484;-75
2022/10/17 03:11:26;;;;;;;13.63;8.50;;;18.10;94.20;;;;;;4996313;28;20026;-76
2022/10/17 03:13:52;;;;;;;16.95;8.80;;;18.10;94.20;;;;;;4996297;28;20019;-76
2022/10/17 03:16:17;;;;;;;13.15;8.15;;;18.00;94.20;;;;;;4996403;28;20488;-74
2022/10/17 03:18:43;;;;;;;15.80;8.30;;;18.00;94.20;;;;;;4996208;28;20395;-75
2022/10/17 03:21:09;;;;;;;12.90;7.90;;;18.00;94.20;;;;;;4997196;28;20041;-74
2022/10/17 03:23:34;;;;;;;13.20;8.45;;;18.00;94.30;;;;;;4997148;28;20038;-76
2022/10/17 03:26:07;;;;;;;14.82;7.78;;;18.00;94.30;;;;;;4981583;28;20058;-76
2022/10/17 03:28:33;;;;;;;13.45;7.65;;;18.00;94.30;;;;;;5005624;28;20038;-75
2022/10/17 03:31:04;;;;;;;12.90;8.32;;;17.90;94.30;;;;;;5004792;28;20066;-77
2022/10/17 03:33:30;;;;;;;13.40;8.15;;;17.90;94.40;;;;;;4997489;28;20023;-74
2022/10/17 03:35:56;;;;;;;13.95;7.95;;;17.90;94.30;;;;;;4996440;28;20026;-76
2022/10/17 03:38:21;;;;;;;14.02;8.10;;;17.80;94.30;;;;;;4996246;28;20069;-75
2022/10/17 03:40:54;;;;;;;15.65;8.02;;;17.80;94.40;;;;;;4995342;28;20029;-76
2022/10/17 03:43:20;;;;;;;12.50;7.68;;;17.80;94.50;;;;;;4995324;28;20022;-71
2022/10/17 03:45:46;;;;;;;12.60;7.63;;;17.80;94.40;;;;;;4995358;28;20366;-75
2022/10/17 03:48:11;;;;;;;11.25;7.85;;;17.80;94.50;;;;;;4995667;28;20129;-74
2022/10/17 03:50:37;;;;;;;11.13;7.70;;;17.80;94.50;;;;;;4995291;28;20026;-72
2022/10/17 03:53:03;;;;;;;9.95;6.85;;;17.80;94.60;;;;;;4995675;28;20053;-74
2022/10/17 03:55:28;;;;;;;15.18;8.13;;;17.80;94.70;;;;;;4995095;28;20022;-75
2022/10/17 03:57:54;;;;;;;13.88;8.07;;;17.80;94.70;;;;;;4994894;28;20136;-72
2022/10/17 04:00:21;;;;;;;17.15;7.90;;;17.80;94.90;;;;;;4995122;28;20018;-76
2022/10/17 04:02:46;;;;;;;10.15;6.88;;;17.70;95.00;;;;;;4977649;28;20022;-75
2022/10/17 04:05:12;;;;;;;11.77;6.90;;;17.80;95.10;;;;;;4995324;28;20019;-72
2022/10/17 04:07:38;;;;;;;16.25;7.78;;;17.80;95.10;;;;;;4995168;28;20030;-76
2022/10/17 04:10:04;;;;;;;11.18;7.22;;;17.80;95.50;;;;;;4995085;28;20030;-75
2022/10/17 04:12:30;;;;;;;11.07;7.13;;;17.80;95.20;;;;;;4995176;28;20030;-78
2022/10/17 04:14:56;;;;;;;10.77;6.60;;;17.80;95.30;;;;;;4994954;28;20174;-76
2022/10/17 04:17:21;;;;;;;12.75;7.25;;;17.80;95.30;;;;;;4994039;28;20050;-75
2022/10/17 04:19:48;;;;;;;12.38;7.05;;;17.70;95.40;;;;;;4977287;28;20357;-76
2022/10/17 04:22:14;;;;;;;12.60;7.50;;;17.70;95.40;;;;;;4994695;28;20072;-76
2022/10/17 04:24:40;;;;;;;11.23;6.20;;;17.70;95.40;;;;;;4994793;28;20104;-77
2022/10/17 04:27:05;;;;;;;12.30;6.65;;;17.70;95.30;;;;;;4994587;28;20015;-77
2022/10/17 04:29:31;;;;;;;13.90;6.75;;;17.70;95.30;;;;;;4976854;28;20026;-76
2022/10/17 04:31:57;;;;;;;12.68;6.75;;;17.70;95.30;;;;;;4994731;28;20094;-75
2022/10/17 04:34:22;;;;;;;13.73;7.05;;;17.60;95.40;;;;;;4994636;28;20025;-75
2022/10/17 04:36:48;;;;;;;12.50;7.43;;;17.60;95.30;;;;;;4994427;28;20022;-75
2022/10/17 04:39:14;;;;;;;12.05;6.82;;;17.60;95.40;;;;;;4994568;28;20465;-76
2022/10/17 04:41:40;;;;;;;11.23;6.63;;;17.60;95.50;;;;;;4977138;28;20026;-76
2022/10/17 04:44:06;;;;;;;15.57;7.57;;;17.60;95.50;;;;;;4994254;28;20035;-77
2022/10/17 04:46:32;;;;;;;12.40;7.10;;;17.60;95.60;;;;;;4994151;28;20499;-74
2022/10/17 04:48:58;;;;;;;14.57;7.18;;;17.60;95.40;;;;;;4994479;28;20448;-68
2022/10/17 04:51:24;;;;;;;13.18;7.57;;;17.60;95.60;;;;;;4976911;28;20030;-77
2022/10/17 04:53:53;;;;;;;13.40;6.75;;;17.60;95.50;;;;;;4994465;28;20034;-77
2022/10/17 04:56:21;;;;;;;11.10;6.78;;;17.60;95.50;;;;;;4993981;28;20051;-75
2022/10/17 04:58:47;;;;;;;11.00;7.03;;;17.60;95.60;;;;;;4994260;28;20038;-75
2022/10/17 05:01:19;;;;;;;11.20;6.88;;;17.60;95.50;;;;;;4976969;28;20069;-76
2022/10/17 05:03:45;;;;;;;11.77;7.35;;;17.60;95.40;;;;;;4994060;28;20471;-77
2022/10/17 05:06:14;;;;;;;13.20;7.03;;;17.60;95.40;;;;;;4993960;28;20540;-76
2022/10/17 05:08:40;;;;;;;13.60;7.90;;;17.60;95.40;;;;;;4994046;28;20049;-78
2022/10/17 05:11:22;;;;;;;15.38;7.43;;;17.70;95.50;;;;;;4993822;28;20053;-76
2022/10/17 05:13:59;;;;;;;15.65;7.63;;;17.60;95.40;;;;;;4993926;28;20073;-74
2022/10/17 05:16:26;;;;;;;11.43;7.68;;;17.60;95.40;;;;;;4993921;28;20033;-74
2022/10/17 05:18:54;;;;;;;17.45;8.07;;;17.60;95.30;;;;;;4994486;28;20472;-76
2022/10/17 05:21:21;;;;;;;11.50;7.63;;;17.60;95.30;;;;;;4994047;28;20018;-75
2022/10/17 05:23:46;;;;;;;12.73;7.45;;;17.60;95.40;;;;;;4993595;28;20472;-73
2022/10/17 05:26:13;;;;;;;11.63;7.30;;;17.60;95.40;;;;;;4993763;28;20033;-76
2022/10/17 05:28:38;;;;;;;13.07;8.05;;;17.60;95.40;;;;;;4993951;28;20037;-78
2022/10/17 05:31:06;;;;;;;16.73;7.72;;;17.60;95.50;;;;;;4993848;28;20030;-76
2022/10/17 05:33:32;;;;;;;12.10;7.72;;;17.50;95.60;;;;;;4993791;28;20033;-73
2022/10/17 05:35:58;;;;;;;13.90;8.13;;;17.60;95.50;;;;;;4976207;28;20032;-77
2022/10/17 05:38:24;;;;;;;13.98;7.22;;;17.50;95.50;;;;;;4993921;28;20038;-75
2022/10/17 05:40:50;;;;;;;12.18;7.88;;;17.50;95.50;;;;;;4993900;28;20062;-76
2022/10/17 05:43:16;;;;;;;17.15;7.90;;;17.60;95.60;;;;;;4993679;28;20097;-75
2022/10/17 05:45:42;;;;;;;16.17;8.00;;;17.50;95.50;;;;;;4993674;28;20030;-75
2022/10/17 05:48:08;;;;;;;15.65;8.25;;;17.50;95.50;;;;;;4976659;28;20337;-77
2022/10/17 05:50:34;;;;;;;14.43;8.00;;;17.50;95.50;;;;;;4993759;28;20094;-76
2022/10/17 05:53:00;;;;;;;12.27;7.55;;;17.60;95.40;;;;;;4993805;28;20038;-76
2022/10/17 05:55:26;;;;;;;15.23;7.63;;;17.60;95.40;;;;;;4994085;28;20026;-73
2022/10/17 05:57:52;;;;;;;13.60;7.53;;;17.60;95.40;;;;;;4996065;28;20047;-74
2022/10/17 06:00:19;;;;;;;13.40;7.80;;;17.60;95.40;;;;;;5009072;28;20050;-75
2022/10/17 06:02:46;;;;;;;13.15;7.72;;;17.60;95.40;;;;;;5006697;28;20078;-77
2022/10/17 06:05:12;;;;;;;13.15;7.95;;;17.60;95.20;;;;;;4994071;28;20038;-77
2022/10/17 06:07:40;;;;;;;16.25;7.97;;;17.60;95.30;;;;;;4993755;28;20025;-76
2022/10/17 06:10:06;;;;;;;13.93;8.18;;;17.60;95.30;;;;;;4993596;28;20052;-78
2022/10/17 06:12:32;;;;;;;15.82;8.10;;;17.70;95.20;;;;;;4993457;28;20488;-77
2022/10/17 06:14:57;;;;;;;15.68;8.63;;;17.70;95.20;;;;;;4993270;28;20030;-77
2022/10/17 06:17:23;;;;;;;14.15;8.50;;;17.70;95.00;;;;;;4992987;28;20049;-77
2022/10/17 06:19:49;;;;;;;12.73;8.00;;;17.80;94.90;;;;;;4993452;28;20460;-76
2022/10/17 06:22:15;;;;;;;14.38;8.30;;;17.80;94.90;;;;;;4993463;28;20073;-76
2022/10/17 06:24:41;;;;;;;12.07;8.48;;;17.90;94.80;;;;;;4993237;28;20037;-77
2022/10/17 06:27:07;;;;;;;13.50;8.32;;;18.00;94.70;;;;;;4993277;28;20103;-75
2022/10/17 06:29:33;;;;;;;14.32;8.73;;;18.10;94.60;;;;;;4993130;28;20480;-77
2022/10/17 06:31:59;;;;;;;14.30;8.18;;;18.20;94.40;;;;;;4993201;28;20176;-75
2022/10/17 06:34:25;;;;;;;10.52;7.07;;;18.30;94.30;;;;;;4993210;28;20101;-78
2022/10/17 06:36:51;;;;;;;15.90;8.82;;;18.40;94.10;;;;;;4995605;28;20030;-76
2022/10/17 06:39:17;;;;;;;15.93;9.02;;;18.60;93.90;;;;;;4996650;28;20098;-76
2022/10/17 06:41:43;;;;;;;16.33;8.68;;;18.70;93.70;;;;;;4997038;28;20022;-76
2022/10/17 06:44:12;;;;;;;15.80;7.90;;;18.80;93.50;;;;;;4996628;28;20057;-75
2022/10/17 06:46:38;;;;;;;15.52;8.40;;;18.90;93.30;;;;;;4963091;28;20030;-79
2022/10/17 06:49:05;;;;;;;13.77;8.32;;;19.00;93.20;;;;;;4978915;28;20034;-75
2022/10/17 06:51:34;;;;;;;16.83;8.05;;;19.10;92.90;;;;;;4996306;28;20033;-76
2022/10/17 06:54:00;;;;;;;17.60;8.75;;;19.20;92.70;;;;;;4963693;28;20046;-80
2022/10/17 06:56:25;;;;;;;13.35;8.88;;;19.30;92.60;;;;;;4996045;28;20456;-78
2022/10/17 06:58:51;;;;;;;14.65;8.32;;;19.30;92.40;;;;;;4996010;28;20492;-79
2022/10/17 07:01:17;;;;;;;19.38;8.77;;;19.40;92.20;;;;;;4996262;28;20109;-78
2022/10/17 07:03:47;;;;;;;16.95;9.38;;;19.40;92.20;;;;;;4996132;28;20383;-77
2022/10/17 07:06:12;;;;;;;11.73;8.00;;;19.40;91.90;;;;;;4996910;28;20022;-78
2022/10/17 07:08:43;;;;;;;15.40;8.52;;;19.40;91.90;;;;;;4996684;28;20523;-78
2022/10/17 07:11:15;;;;;;;14.18;8.32;;;19.40;91.70;;;;;;4979547;28;20038;-79
2022/10/17 07:13:41;;;;;;;11.23;7.78;;;19.40;91.70;;;;;;4996729;28;20057;-78
2022/10/17 07:16:08;;;;;;;18.50;7.95;;;19.40;91.60;;;;;;4996830;28;20027;-77
2022/10/17 07:18:34;;;;;;;15.73;7.90;;;19.40;91.50;;;;;;5002941;28;20079;-77
2022/10/17 07:20:59;;;;;;;13.55;8.00;;;19.50;91.50;;;;;;4997875;28;20388;-78
2022/10/17 07:23:25;;;;;;;13.77;7.97;;;19.60;91.30;;;;;;4978986;28;20034;-74
2022/10/17 07:25:51;;;;;;;13.98;7.43;;;19.70;91.00;;;;;;4995379;28;20077;-74
2022/10/17 07:28:17;;;;;;;13.30;7.47;;;19.80;90.90;;;;;;4995225;28;20092;-73
2022/10/17 07:30:43;;;;;;;16.10;7.82;;;19.80;90.50;;;;;;4995194;28;20026;-75
2022/10/17 07:33:09;;;;;;;13.07;6.90;;;19.90;90.40;;;;;;4995361;28;20048;-73
2022/10/17 07:35:39;;;;;;;16.70;7.68;;;20.00;90.50;;;;;;4995240;28;20485;-75
2022/10/17 07:38:05;;;;;;;12.25;7.15;;;20.00;90.00;;;;;;4994988;28;20600;-72
2022/10/17 07:40:31;;;;;;;13.00;7.07;;;20.20;89.70;;;;;;4977924;28;20034;-77
2022/10/17 07:42:57;;;;;;;14.00;7.03;;;20.20;89.00;;;;;;4994679;28;20428;-77
2022/10/17 07:45:22;;;;;;;16.80;7.03;;;20.30;88.50;;;;;;4994916;28;20032;-77
2022/10/17 07:47:50;;;;;;;18.58;6.43;;;20.30;87.90;;;;;;4994152;28;20026;-69
2022/10/17 07:50:15;;;;;;;13.88;6.43;;;20.30;87.60;;;;;;4994723;28;20102;-74
2022/10/17 07:52:42;;;;;;;14.27;7.30;;;20.40;87.20;;;;;;4994804;28;20134;-75
2022/10/17 07:55:08;;;;;;;12.88;6.68;;;20.40;86.30;;;;;;4994688;28;20033;-73
2022/10/17 07:57:34;;;;;;;13.45;6.88;;;20.40;86.10;;;;;;4994420;28;20049;-76
2022/10/17 08:00:00;;;;;;;11.35;6.10;;;20.40;85.60;;;;;;4994708;28;20034;-74
2022/10/17 08:02:26;;;;;;;13.20;6.68;;;20.40;85.40;;;;;;4994438;28;20094;-73
2022/10/17 08:04:53;;;;;;;13.70;6.88;;;20.30;85.30;;;;;;4994246;28;20033;-71
2022/10/17 08:07:19;;;;;;;14.70;6.68;;;20.40;85.30;;;;;;4994186;28;20364;-69
2022/10/17 08:09:46;;;;;;;12.40;6.43;;;20.40;84.70;;;;;;4994176;28;20136;-75
2022/10/17 08:12:14;;;;;;;17.67;6.50;;;20.40;84.30;;;;;;4994530;28;20026;-69
2022/10/17 08:14:40;;;;;;;12.75;6.47;;;20.40;84.70;;;;;;4994535;28;20499;-70
2022/10/17 08:17:06;;;;;;;16.38;6.72;;;20.40;83.50;;;;;;4994004;28;20015;-73
2022/10/17 08:19:33;;;;;;;15.82;7.88;;;20.50;83.70;;;;;;4994460;28;20057;-72
2022/10/17 08:22:00;;;;;;;12.60;6.28;;;20.50;83.70;;;;;;4994246;28;20027;-72
2022/10/17 08:24:26;;;;;;;12.95;6.90;;;20.60;83.60;;;;;;4994405;28;20034;-70
2022/10/17 08:26:52;;;;;;;13.43;6.82;;;20.60;83.50;;;;;;4994750;28;20022;-71
2022/10/17 08:29:19;;;;;;;10.43;6.47;;;20.60;83.10;;;;;;4995548;28;20034;-73
2022/10/17 08:31:45;;;;;;;12.73;7.05;;;20.60;82.90;;;;;;4994983;28;20022;-72
2022/10/17 08:34:10;;;;;;;22.77;7.25;;;20.60;82.50;;;;;;4995700;28;20038;-74
2022/10/17 08:36:36;;;;;;;16.33;7.15;;;20.60;82.30;;;;;;5002796;28;20038;-69
2022/10/17 08:39:03;;;;;;;17.17;7.45;;;20.60;82.40;;;;;;5002835;28;20094;-69
2022/10/17 08:42:01;;;;;;;26.85;7.97;;;20.60;82.40;;;;;;5002768;28;20026;-77
2022/10/17 08:44:39;;;;;;;29.75;8.20;;;20.60;83.40;;;;;;4994343;28;20027;-76
2022/10/17 08:47:34;;;;;;;24.48;8.02;;;20.70;83.20;;;;;;4994294;28;20037;-78
2022/10/17 08:50:03;;;;;;;24.98;7.60;;;20.70;83.00;;;;;;4989997;28;20062;-74
2022/10/17 08:52:47;;;;;;;21.55;7.25;;;20.70;82.30;;;;;;4993891;28;20586;-73
2022/10/17 08:55:37;;;;;;;14.45;7.40;;;20.80;82.40;;;;;;4976289;28;20395;-72
2022/10/17 08:58:27;;;;;;;13.10;7.03;;;20.80;83.00;;;;;;4992600;28;20086;-73
2022/10/17 09:01:16;;;;;;;23.92;8.38;;;20.90;82.50;;;;;;4993692;28;20125;-75
2022/10/17 09:04:19;;;;;;;19.52;7.75;;;20.90;82.50;;;;;;4993450;28;20468;-75
2022/10/17 09:07:01;;;;;;;14.65;6.65;;;20.90;82.50;;;;;;4993995;28;20018;-77
2022/10/17 09:09:44;;;;;;;14.25;7.47;;;20.90;81.90;;;;;;4994143;28;20027;-78
2022/10/17 09:12:19;;;;;;;18.30;7.70;;;21.00;81.10;;;;;;4993753;28;20105;-77
2022/10/17 09:15:19;;;;;;;15.40;7.57;;;21.10;81.60;;;;;;4993536;28;20023;-78
2022/10/17 09:18:42;;;;;;;18.33;7.03;;;21.20;81.20;;;;;;4976124;28;20396;-76
2022/10/17 09:21:19;;;;;;;12.82;6.68;;;21.30;81.00;;;;;;4914832;29;20045;-75
2022/10/17 09:23:51;;;;;;;15.88;7.38;;;21.40;80.90;;;;;;4914651;29;20076;-77
2022/10/17 09:26:17;;;;;;;19.40;7.33;;;21.50;80.70;;;;;;4943915;28;20550;-76
2022/10/17 09:28:45;;;;;;;19.75;8.38;;;21.50;79.70;;;;;;4993295;28;20546;-74
2022/10/17 09:31:23;;;;;;;17.40;7.90;;;21.70;79.40;;;;;;4993655;28;20037;-73
2022/10/17 09:33:54;;;;;;;14.10;6.82;;;21.70;79.70;;;;;;4993617;28;20037;-74
2022/10/17 09:36:33;;;;;;;14.30;8.13;;;21.80;78.70;;;;;;4977046;28;20042;-70
2022/10/17 09:39:02;;;;;;;14.07;7.63;;;21.90;78.70;;;;;;4993408;28;20092;-78
2022/10/17 09:41:40;;;;;;;17.98;7.95;;;22.00;78.90;;;;;;4993536;28;20491;-74
2022/10/17 09:44:22;;;;;;;13.77;8.30;;;22.10;78.90;;;;;;4993524;28;20077;-77
2022/10/17 09:47:09;;;;;;;15.40;8.07;;;22.20;78.50;;;;;;4993458;28;20121;-79
2022/10/17 09:49:40;;;;;;;15.25;8.10;;;22.20;79.00;;;;;;4993424;28;20026;-76
2022/10/17 09:52:11;;;;;;;14.63;7.80;;;22.30;78.10;;;;;;4993572;28;20038;-78
2022/10/17 09:54:42;;;;;;;24.10;8.00;;;22.50;78.30;;;;;;4993289;28;20030;-75
2022/10/17 09:57:10;;;;;;;18.30;7.18;;;22.60;77.90;;;;;;4992609;28;20145;-75
2022/10/17 09:59:42;;;;;;;13.77;7.13;;;22.60;76.90;;;;;;4992496;28;20046;-75
2022/10/17 10:02:18;;;;;;;10.88;7.28;;;22.70;77.00;;;;;;4993007;28;20053;-76
2022/10/17 10:04:57;;;;;;;14.90;7.00;;;22.80;76.40;;;;;;4992744;28;20034;-77
2022/10/17 10:07:24;;;;;;;14.50;9.75;;;22.90;75.90;;;;;;4990823;28;20435;-76
2022/10/17 10:09:50;;;;;;;13.98;7.55;;;23.00;76.20;;;;;;4993992;28;20097;-78
2022/10/17 10:12:20;;;;;;;10.93;7.57;;;23.20;75.60;;;;;;4979243;28;20392;-77
2022/10/17 10:14:46;;;;;;;15.02;7.80;;;23.20;75.50;;;;;;4996520;28;20092;-79
2022/10/17 10:17:32;;;;;;;19.58;8.30;;;23.30;74.80;;;;;;4996303;28;20026;-78
2022/10/17 10:19:58;;;;;;;16.30;7.93;;;23.40;73.50;;;;;;4996964;28;20074;-78
2022/10/17 10:22:24;;;;;;;13.38;8.07;;;23.50;74.20;;;;;;4997036;28;20519;-77
2022/10/17 10:25:14;;;;;;;13.40;7.38;;;23.50;73.60;;;;;;4997139;28;20498;-77
2022/10/17 10:27:43;;;;;;;20.48;8.55;;;23.60;72.40;;;;;;4996870;28;20098;-77
2022/10/17 10:30:27;;;;;;;11.32;7.20;;;23.60;73.10;;;;;;4979771;28;20050;-78
2022/10/17 10:32:54;;;;;;;11.38;7.40;;;23.70;72.50;;;;;;4996547;28;20506;-76
2022/10/17 10:35:21;;;;;;;31.75;8.05;;;23.70;71.80;;;;;;4996493;28;20023;-77
2022/10/17 10:37:53;;;;;;;18.00;8.18;;;23.80;72.80;;;;;;4978535;28;20030;-77
2022/10/17 10:40:24;;;;;;;21.80;7.75;;;23.90;72.60;;;;;;4996240;28;20456;-77
2022/10/17 10:42:57;;;;;;;14.50;7.60;;;24.00;72.00;;;;;;4996751;28;20030;-78
2022/10/17 10:45:28;;;;;;;12.15;6.90;;;24.00;71.80;;;;;;4996428;28;20478;-77
2022/10/17 10:48:04;;;;;;;13.13;7.32;;;24.10;71.40;;;;;;4996804;28;20396;-78
2022/10/17 10:50:39;;;;;;;16.25;7.72;;;24.20;71.10;;;;;;4997383;28;20158;-77
2022/10/17 10:53:04;;;;;;;18.23;7.30;;;24.30;70.80;;;;;;5007054;28;20416;-78
2022/10/17 10:58:29;;;;;;;11.90;7.45;;;24.30;68.30;;;;;;4994624;28;20435;-75
2022/10/17 11:01:02;;;;;;;11.88;6.93;;;24.40;69.70;;;;;;4996326;28;20034;-75
2022/10/17 11:03:36;;;;;;;14.57;7.45;;;24.50;68.00;;;;;;4997017;28;20019;-78
2022/10/17 11:06:12;;;;;;;14.30;7.78;;;24.50;66.80;;;;;;5006094;28;20033;-81
2022/10/17 11:08:46;;;;;;;10.68;6.55;;;24.60;68.30;;;;;;5017489;28;20050;-78
2022/10/17 11:11:23;;;;;;;15.38;7.63;;;24.70;67.10;;;;;;5017039;28;20052;-77
2022/10/17 11:14:01;;;;;;;10.50;6.47;;;24.60;66.60;;;;;;5016797;28;20128;-78
2022/10/17 11:16:43;;;;;;;13.40;7.05;;;24.70;65.90;;;;;;5016520;28;20033;-79
2022/10/17 11:19:24;;;;;;;9.35;6.80;;;24.70;63.90;;;;;;5017072;28;20061;-76
2022/10/17 11:22:02;;;;;;;9.23;6.68;;;24.70;63.70;;;;;;5016688;28;20022;-74
2022/10/17 11:24:36;;;;;;;14.40;7.57;;;24.80;64.70;;;;;;5018257;28;20037;-82
2022/10/17 11:27:05;;;;;;;;;;;24.90;64.40;;;;;;5017841;28;20041;-76
2022/10/17 11:29:33;;;;;;;12.27;6.88;;;25.00;62.60;;;;;;5017041;28;19905;-77
2022/10/17 11:32:07;;;;;;;11.88;7.03;;;25.00;64.10;;;;;;5017617;28;20100;-77
2022/10/17 11:34:41;;;;;;;12.55;7.70;;;25.10;63.90;;;;;;4999884;28;20404;-81
2022/10/17 11:37:17;;;;;;;14.38;7.30;;;25.10;63.40;;;;;;5016667;28;20490;-77
2022/10/17 11:40:13;;;;;;;11.90;7.28;;;25.20;63.00;;;;;;5015788;28;20442;-75
2022/10/17 11:43:05;;;;;;;11.93;6.35;;;25.30;61.70;;;;;;5014797;28;20427;-75
2022/10/17 11:45:38;;;;;;;12.02;7.90;;;25.40;62.20;;;;;;5003887;28;20038;-75
2022/10/17 11:48:26;;;;;;;19.10;12.35;;;25.50;63.20;;;;;;5015146;28;20030;-76
2022/10/17 11:51:17;;;;;;;15.38;11.05;;;25.60;63.00;;;;;;5014820;28;20061;-76
2022/10/17 11:54:33;;;;;;;14.00;7.78;;;25.60;63.10;;;;;;5014199;28;20029;-76
2022/10/17 11:57:36;;;;;;;13.60;7.20;;;25.70;61.40;;;;;;5008910;28;20067;-78
2022/10/17 12:00:20;;;;;;;14.20;7.70;;;25.70;61.30;;;;;;5034500;28;20041;-74
2022/10/17 12:02:58;;;;;;;13.52;7.15;;;25.70;61.60;;;;;;5034626;28;20049;-77
2022/10/17 12:05:38;;;;;;;12.15;7.32;;;25.70;60.50;;;;;;5034144;28;20063;-76
2022/10/17 12:08:25;;;;;;;10.60;7.22;;;25.70;59.90;;;;;;5032726;28;20028;-78
2022/10/17 12:11:04;;;;;;;12.60;7.88;;;25.70;60.10;;;;;;5034485;28;20033;-77
2022/10/17 12:13:32;;;;;;;11.00;7.38;;;25.70;60.40;;;;;;5034184;28;20029;-76
2022/10/17 12:16:18;;;;;;;16.00;7.57;;;25.70;60.50;;;;;;5033670;28;20133;-75
2022/10/17 12:19:11;;;;;;;11.10;6.95;;;25.80;59.70;;;;;;5033971;28;20146;-76
2022/10/17 12:21:57;;;;;;;11.38;7.55;;;25.90;60.40;;;;;;5014271;28;20033;-76
2022/10/17 12:24:38;;;;;;;16.00;7.00;;;26.10;60.50;;;;;;5033840;28;20030;-75
2022/10/17 12:27:38;;;;;;;11.52;6.65;;;26.10;59.90;;;;;;5033909;28;20037;-76
2022/10/17 12:30:24;;;;;;;12.85;8.02;;;26.30;59.10;;;;;;5034207;28;20029;-76
2022/10/17 12:33:04;;;;;;;11.50;7.40;;;26.40;58.40;;;;;;5017545;28;20116;-79
2022/10/17 12:35:32;;;;;;;13.48;6.78;;;26.50;58.20;;;;;;5033920;28;20119;-77
2022/10/17 12:38:14;;;;;;;15.68;7.20;;;26.40;58.50;;;;;;5034249;28;20107;-78
2022/10/17 12:40:42;;;;;;;9.32;6.78;;;26.30;57.30;;;;;;5033794;28;20017;-75
2022/10/17 12:43:14;;;;;;;11.43;7.00;;;26.10;58.60;;;;;;5034425;28;20025;-74
2022/10/17 12:45:56;;;;;;;10.57;6.80;;;26.10;59.10;;;;;;5033762;28;20026;-78
2022/10/17 12:48:37;;;;;;;15.77;7.70;;;26.10;58.30;;;;;;5034502;28;20030;-77
2022/10/17 12:51:17;;;;;;;10.98;6.78;;;26.20;57.70;;;;;;5033477;28;20348;-80
2022/10/17 12:53:46;;;;;;;15.90;9.57;;;26.40;57.00;;;;;;5033477;28;20092;-80
2022/10/17 12:56:18;;;;;;;14.52;8.18;;;26.50;57.30;;;;;;5033449;28;20471;-81
2022/10/17 12:58:50;;;;;;;13.65;6.85;;;26.60;57.20;;;;;;5032659;28;20036;-78
2022/10/17 13:01:29;;;;;;;11.95;6.55;;;26.70;56.80;;;;;;5034137;28;20025;-79
2022/10/17 13:03:57;;;;;;;9.98;6.38;;;26.80;56.70;;;;;;5033470;28;20033;-81